Hovedside
METAR-TAF:

METAR-TAF

Lufthavner :

Arvidsjaur, Sverige

Arvidsjaur lufthavn

breddegrad: 65-35-25N, lengdegrad: 019-16-55E, høyde over havet: 379 m

Gjeldene værobservasjon

Denne rapporten ble laget for 37 minutter siden, klokken 09:50 UTC
Vind 9 kt fra Øst, skiftende mellom Nordøst og Øst-sørøst
Temperatur 9°C
Luftfuktighet 93%
Trykk 991 hPa
Sikt 10 km eller mer
lett regn

METAR: ESNX 250950Z AUTO 08009KT 050V110 9999 -RA FEW012/// SCT026/// 09/08 Q0991 REDZ

Tid: 12:27 (10:27 UTC)


TAF: fraværende

Værobservasjoner og værvarsel for over 4000 flyplasser (METAR- og TAF-rapporter).

Tilgjengelige stasjoner er representert av de røde og gule prikkene på kartet.

Hold musepekeren over prikken for å se navnet på stasjonen.

Klikk så for å se værobservasjoner og -varsler.

For å forandre kartet kan du klikke på den grønne knappen med svart kryss for å zoome inn, på den grønne knappen med strek for å zoome ut, eller på de grønne pilene for å se tilstøtende kart.


METAR-TAF: